Terminal Aerodrome Forecast
Issued by NWS Tampa Bay Area, FL

Current Version | Previous Version | Text Only | Print | Product List | Glossary On
Versions: 1 2 3 4 5 6 7 8 9 10 11 12
000
FTUS42 KTBW 310500
TAFFMY
TAF
KFMY 310538Z 3106/0106 VRB03KT P6SM VCSH SCT030 BKN080
     FM311500 33007KT P6SM SCT040
     FM311800 30011KT P6SM FEW040
     FM312300 31006KT P6SM SKC=

USA.gov is the U.S. government's official web portal to all federal, state and local government web resources and services.